createdAt,value
2016-12-17T00:00:57.316Z,48.47
2016-12-17T00:01:57.298Z,48.28
2016-12-17T00:02:57.279Z,48.44
2016-12-17T00:03:57.259Z,48.44
2016-12-17T00:04:57.246Z,47.77
2016-12-17T00:05:57.231Z,47.77
2016-12-17T00:06:57.214Z,48.64
2016-12-17T00:07:57.195Z,49.41
2016-12-17T00:08:57.203Z,51.73
2016-12-17T00:09:57.160Z,52.5
2016-12-17T00:10:57.146Z,52.14
2016-12-17T00:11:57.126Z,52.14
2016-12-17T00:12:57.106Z,52.05
2016-12-17T00:13:57.095Z,51.59
2016-12-17T00:14:56.758Z,51.31
2016-12-17T00:15:57.057Z,51.69
2016-12-17T00:16:57.042Z,51.59
2016-12-17T00:17:57.018Z,51.59
2016-12-17T00:18:57.013Z,51.59
2016-12-17T00:19:56.988Z,51.69
2016-12-17T00:20:56.667Z,52.08
2016-12-17T00:21:56.956Z,52.17
2016-12-17T00:22:56.932Z,52.75
2016-12-17T00:23:56.605Z,52.26
2016-12-17T00:24:56.904Z,52.36
2016-12-17T00:25:56.885Z,52.08
2016-12-17T00:26:56.870Z,52.26
2016-12-17T00:27:56.852Z,52.17
2016-12-17T00:28:56.833Z,52.26
2016-12-17T00:29:56.824Z,52.08
2016-12-17T00:30:56.799Z,52.17
2016-12-17T00:31:56.788Z,52.08
2016-12-17T00:32:56.766Z,52.17
2016-12-17T00:33:56.749Z,52.08
2016-12-17T00:34:56.736Z,52.08
2016-12-17T00:35:56.717Z,51.98
2016-12-17T00:36:56.430Z,51.88
2016-12-17T00:37:56.690Z,52.26
2016-12-17T00:38:56.663Z,52.26
2016-12-17T00:39:56.650Z,52.26
2016-12-17T00:40:56.633Z,52.17
2016-12-17T00:41:56.617Z,52.26
2016-12-17T00:42:56.284Z,52.26
2016-12-17T00:43:56.577Z,52.08
2016-12-17T00:44:56.564Z,52.26
2016-12-17T00:45:56.248Z,52.08
2016-12-17T00:46:56.524Z,52.17
2016-12-17T00:47:56.514Z,52.46
2016-12-17T00:48:56.497Z,52.17
2016-12-17T00:49:56.164Z,52.17
2016-12-17T00:50:56.465Z,52.26
2016-12-17T00:51:56.127Z,52.46
2016-12-17T00:52:56.430Z,52.08
2016-12-17T00:53:56.410Z,52.08
2016-12-17T00:54:56.394Z,52.65
2016-12-17T00:55:56.378Z,52.36
2016-12-17T00:56:56.355Z,52.36
2016-12-17T00:57:56.347Z,51.98
2016-12-17T00:58:56.323Z,52.75
2016-12-17T00:59:56.303Z,52.75
2016-12-17T01:00:56.285Z,52.75
2016-12-17T01:01:56.269Z,52.55
2016-12-17T01:02:56.258Z,52.55
2016-12-17T01:03:56.236Z,52.55
2016-12-17T01:04:56.229Z,52.94
2016-12-17T01:05:56.258Z,52.08
2016-12-17T01:06:56.184Z,51.98
2016-12-17T01:07:56.173Z,51.98
2016-12-17T01:08:56.148Z,52.36
2016-12-17T01:09:56.135Z,52.75
2016-12-17T01:10:56.115Z,53.03
2016-12-17T01:11:56.100Z,52.75
2016-12-17T01:12:56.079Z,52.91
2016-12-17T01:13:56.065Z,52.65
2016-12-17T01:14:56.051Z,52.75
2016-12-17T01:15:56.029Z,52.65
2016-12-17T01:16:56.023Z,52.75
2016-12-17T01:17:55.994Z,52.65
2016-12-17T01:18:55.985Z,52.94
2016-12-17T01:19:55.960Z,52.75
2016-12-17T01:20:55.942Z,52.43
2016-12-17T01:21:55.930Z,52.65
2016-12-17T01:22:55.910Z,52.36
2016-12-17T01:23:55.895Z,52.46
2016-12-17T01:24:55.871Z,52.62
2016-12-17T01:25:55.860Z,52.72
2016-12-17T01:26:55.837Z,52.43
2016-12-17T01:27:55.819Z,52.34
2016-12-17T01:28:55.808Z,52.72
2016-12-17T01:29:55.789Z,52.46
2016-12-17T01:30:55.819Z,52.94
2016-12-17T01:31:55.439Z,52.14
2016-12-17T01:32:55.743Z,52.34
2016-12-17T01:33:55.722Z,52.43
2016-12-17T01:34:55.732Z,52.43
2016-12-17T01:35:55.368Z,52.62
2016-12-17T01:36:55.668Z,52.34
2016-12-17T01:37:55.656Z,52.34
2016-12-17T01:38:55.320Z,52.72
2016-12-17T01:39:55.298Z,52.72
2016-12-17T01:40:55.596Z,52.94
2016-12-17T01:41:55.577Z,52.94
2016-12-17T01:42:55.252Z,52.62
2016-12-17T01:43:55.233Z,52.81
2016-12-17T01:44:55.525Z,52.36
2016-12-17T01:45:55.512Z,52.43
2016-12-17T01:46:55.177Z,52.53
2016-12-17T01:47:55.479Z,52.62
2016-12-17T01:48:55.458Z,52.34
2016-12-17T01:49:55.445Z,52.43
2016-12-17T01:50:55.424Z,52.53
2016-12-17T01:51:55.413Z,52.72
2016-12-17T01:52:55.390Z,52.34
2016-12-17T01:53:55.372Z,52.81
2016-12-17T01:54:55.355Z,52.53
2016-12-17T01:55:55.340Z,52.43
2016-12-17T01:56:55.320Z,52.91
2016-12-17T01:57:55.301Z,51.95
2016-12-17T01:58:55.285Z,52.34
2016-12-17T01:59:55.269Z,52.72
2016-12-17T02:00:55.251Z,52.34
2016-12-17T02:01:55.236Z,52.81
2016-12-17T02:02:55.221Z,52.53
2016-12-17T02:03:55.200Z,52.91
2016-12-17T02:04:55.192Z,52.34
2016-12-17T02:05:54.850Z,52.53
2016-12-17T02:06:54.832Z,52.43
2016-12-17T02:07:55.131Z,52.72
2016-12-17T02:08:55.114Z,52.72
2016-12-17T02:09:55.094Z,52.91
2016-12-17T02:10:55.084Z,52.72
2016-12-17T02:11:55.060Z,52.72
2016-12-17T02:12:55.047Z,52.72
2016-12-17T02:13:55.025Z,52.62
2016-12-17T02:14:55.008Z,52.53
2016-12-17T02:15:54.679Z,52.53
2016-12-17T02:16:54.975Z,52.62
2016-12-17T02:17:54.960Z,52.62
2016-12-17T02:18:54.623Z,52.62
2016-12-17T02:19:54.920Z,52.81
2016-12-17T02:20:54.907Z,52.91
2016-12-17T02:21:54.888Z,52.81
2016-12-17T02:22:54.878Z,52.72
2016-12-17T02:23:54.854Z,52.72
2016-12-17T02:24:54.842Z,52.62
2016-12-17T02:25:54.817Z,52.81
2016-12-17T02:26:54.486Z,52.62
2016-12-17T02:27:54.785Z,52.62
2016-12-17T02:28:54.767Z,52.62
2016-12-17T02:29:54.435Z,52.53
2016-12-17T02:30:54.736Z,52.72
2016-12-17T02:31:54.399Z,52.62
2016-12-17T02:32:54.700Z,52.53
2016-12-17T02:33:54.366Z,52.81
2016-12-17T02:34:54.669Z,52.43
2016-12-17T02:35:54.646Z,52.72
2016-12-17T02:36:54.630Z,52.62
2016-12-17T02:37:54.611Z,52.53
2016-12-17T02:38:54.600Z,52.53
2016-12-17T02:39:54.579Z,52.43
2016-12-17T02:40:54.557Z,52.34
2016-12-17T02:41:54.228Z,52.53
2016-12-17T02:42:54.523Z,52.53
2016-12-17T02:43:54.505Z,52.43
2016-12-17T02:44:54.488Z,52.43
2016-12-17T02:45:54.473Z,52.14
2016-12-17T02:46:54.454Z,52.34
2016-12-17T02:47:54.439Z,53.01
2016-12-17T02:48:54.421Z,52.34
2016-12-17T02:49:54.404Z,53.01
2016-12-17T02:50:54.390Z,52.34
2016-12-17T02:51:54.368Z,52.81
2016-12-17T02:52:54.350Z,52.53
2016-12-17T02:53:54.334Z,53.01
2016-12-17T02:54:54.322Z,52.81
2016-12-17T02:55:54.300Z,52.91
2016-12-17T02:56:54.285Z,52.24
2016-12-17T02:57:54.264Z,53.01
2016-12-17T02:58:54.243Z,52.81
2016-12-17T02:59:53.914Z,52.72
2016-12-17T03:00:53.904Z,52.34
2016-12-17T03:01:54.193Z,52.81
2016-12-17T03:02:53.860Z,52.91
2016-12-17T03:03:54.159Z,53.01
2016-12-17T03:04:54.139Z,53.01
2016-12-17T03:05:54.128Z,52.81
2016-12-17T03:06:54.107Z,52.81
2016-12-17T03:07:54.092Z,52.72
2016-12-17T03:08:54.071Z,52.53
2016-12-17T03:09:53.741Z,52.43
2016-12-17T03:10:54.040Z,52.24
2016-12-17T03:11:54.023Z,52.43
2016-12-17T03:12:54.006Z,52.53
2016-12-17T03:13:53.986Z,52.53
2016-12-17T03:14:53.654Z,53.01
2016-12-17T03:15:53.948Z,52.43
2016-12-17T03:16:53.932Z,52.53
2016-12-17T03:17:53.601Z,52.53
2016-12-17T03:18:53.900Z,52.24
2016-12-17T03:19:53.882Z,52.53
2016-12-17T03:20:53.866Z,52.43
2016-12-17T03:21:53.844Z,52.72
2016-12-17T03:22:53.831Z,53.01
2016-12-17T03:23:53.814Z,52.43
2016-12-17T03:24:53.797Z,52.62
2016-12-17T03:25:53.780Z,52.62
2016-12-17T03:26:53.766Z,52.43
2016-12-17T03:27:53.741Z,52.43
2016-12-17T03:28:53.726Z,52.34
2016-12-17T03:29:53.709Z,52.72
2016-12-17T03:30:53.692Z,52.81
2016-12-17T03:31:53.677Z,52.72
2016-12-17T03:32:53.655Z,53.11
2016-12-17T03:33:53.638Z,52.81
2016-12-17T03:34:53.625Z,52.81
2016-12-17T03:35:53.604Z,52.91
2016-12-17T03:36:53.586Z,52.81
2016-12-17T03:37:53.569Z,52.91
2016-12-17T03:38:53.552Z,52.81
2016-12-17T03:39:53.533Z,52.81
2016-12-17T03:40:53.515Z,52.91
2016-12-17T03:41:53.185Z,52.91
2016-12-17T03:42:53.483Z,52.81
2016-12-17T03:43:53.468Z,53.01
2016-12-17T03:44:53.447Z,52.81
2016-12-17T03:45:53.436Z,52.62
2016-12-17T03:46:53.412Z,53.11
2016-12-17T03:47:53.393Z,53.01
2016-12-17T03:48:53.066Z,52.91
2016-12-17T03:49:53.359Z,52.62
2016-12-17T03:50:53.347Z,52.34
2016-12-17T03:51:53.352Z,52.81
2016-12-17T03:52:53.307Z,52.34
2016-12-17T03:53:53.292Z,52.34
2016-12-17T03:54:52.959Z,52.43
2016-12-17T03:55:53.262Z,52.34
2016-12-17T03:56:53.241Z,52.72
2016-12-17T03:57:53.221Z,52.34
2016-12-17T03:58:53.210Z,52.34
2016-12-17T03:59:53.187Z,52.24
2016-12-17T04:00:53.170Z,52.53
2016-12-17T04:01:53.155Z,52.81
2016-12-17T04:02:52.819Z,52.62
2016-12-17T04:03:53.120Z,52.81
2016-12-17T04:04:53.101Z,53.01
2016-12-17T04:05:53.084Z,52.43
2016-12-17T04:06:53.065Z,53.01
2016-12-17T04:07:53.053Z,52.72
2016-12-17T04:08:53.026Z,52.81
2016-12-17T04:09:53.019Z,52.91
2016-12-17T04:10:52.996Z,53.01
2016-12-17T04:11:52.977Z,52.91
2016-12-17T04:12:52.960Z,53.01
2016-12-17T04:13:52.945Z,52.81
2016-12-17T04:14:52.925Z,52.81
2016-12-17T04:15:52.908Z,53.01
2016-12-17T04:16:52.575Z,52.43
2016-12-17T04:17:52.873Z,53.01
2016-12-17T04:18:52.855Z,52.81
2016-12-17T04:19:52.843Z,53.01
2016-12-17T04:20:52.824Z,52.91
2016-12-17T04:21:52.806Z,52.91
2016-12-17T04:22:52.813Z,52.91
2016-12-17T04:23:52.769Z,52.72
2016-12-17T04:24:52.753Z,52.91
2016-12-17T04:25:52.734Z,52.72
2016-12-17T04:26:52.719Z,52.91
2016-12-17T04:27:52.702Z,52.91
2016-12-17T04:28:52.685Z,52.91
2016-12-17T04:29:52.665Z,52.81
2016-12-17T04:30:52.644Z,52.72
2016-12-17T04:31:52.631Z,52.72
2016-12-17T04:32:52.612Z,52.91
2016-12-17T04:33:52.593Z,52.81
2016-12-17T04:34:52.576Z,52.91
2016-12-17T04:35:52.558Z,52.72
2016-12-17T04:36:52.545Z,53.49
2016-12-17T04:37:52.213Z,53.11
2016-12-17T04:38:52.507Z,52.91
2016-12-17T04:39:52.181Z,52.81
2016-12-17T04:40:52.478Z,52.81
2016-12-17T04:41:52.143Z,52.81
2016-12-17T04:42:52.436Z,52.91
2016-12-17T04:43:52.423Z,53.01
2016-12-17T04:44:52.401Z,52.72
2016-12-17T04:45:52.072Z,52.81
2016-12-17T04:46:52.377Z,52.81
2016-12-17T04:47:52.352Z,52.91
2016-12-17T04:48:52.341Z,52.91
2016-12-17T04:49:52.003Z,52.81
2016-12-17T04:50:52.304Z,53.01
2016-12-17T04:51:52.303Z,52.81
2016-12-17T04:52:52.262Z,52.34
2016-12-17T04:53:52.251Z,52.43
2016-12-17T04:54:52.229Z,53.01
2016-12-17T04:55:52.216Z,52.24
2016-12-17T04:56:52.195Z,52.91
2016-12-17T04:57:52.184Z,53.11
2016-12-17T04:58:52.163Z,53.01
2016-12-17T04:59:52.141Z,52.72
2016-12-17T05:00:52.126Z,52.91
2016-12-17T05:01:52.105Z,52.81
2016-12-17T05:02:52.094Z,52.34
2016-12-17T05:03:51.764Z,53.11
2016-12-17T05:04:52.058Z,52.72
2016-12-17T05:05:52.036Z,53.11
2016-12-17T05:06:52.021Z,52.72
2016-12-17T05:07:52.004Z,53.01
2016-12-17T05:08:51.987Z,52.43
2016-12-17T05:09:51.967Z,52.62
2016-12-17T05:10:51.953Z,52.34
2016-12-17T05:11:51.931Z,51.95
2016-12-17T05:12:51.598Z,51.79
2016-12-17T05:13:51.898Z,51.59
2016-12-17T05:14:51.879Z,51.5
2016-12-17T05:15:51.866Z,51.79
2016-12-17T05:16:51.845Z,51.98
2016-12-17T05:17:51.512Z,51.69
2016-12-17T05:18:51.813Z,51.91
2016-12-17T05:19:51.797Z,51.53
2016-12-17T05:20:51.462Z,51.04
2016-12-17T05:21:51.761Z,51.23
2016-12-17T05:22:51.744Z,51.14
2016-12-17T05:23:51.722Z,51.43
2016-12-17T05:24:51.709Z,51.14
2016-12-17T05:25:51.688Z,50.95
2016-12-17T05:26:51.673Z,51.33
2016-12-17T05:27:51.656Z,51.04
2016-12-17T05:28:51.637Z,51.04
2016-12-17T05:29:51.619Z,51.33
2016-12-17T05:30:51.606Z,51.04
2016-12-17T05:31:51.589Z,51.04
2016-12-17T05:32:51.570Z,50.95
2016-12-17T05:33:51.553Z,51.62
2016-12-17T05:34:51.223Z,51.72
2016-12-17T05:35:51.522Z,51.84
2016-12-17T05:36:51.191Z,51.91
2016-12-17T05:37:51.486Z,51.91
2016-12-17T05:38:51.470Z,51.81
2016-12-17T05:39:51.449Z,51.62
2016-12-17T05:40:51.437Z,52
2016-12-17T05:41:51.417Z,51.81
2016-12-17T05:42:51.084Z,51.72
2016-12-17T05:43:51.380Z,51.72
2016-12-17T05:44:51.364Z,51.55
2016-12-17T05:45:51.352Z,51.74
2016-12-17T05:46:51.331Z,51.81
2016-12-17T05:47:51.318Z,51.72
2016-12-17T05:48:51.301Z,51.84
2016-12-17T05:49:51.321Z,51.72
2016-12-17T05:50:50.944Z,51.84
2016-12-17T05:51:50.929Z,51.84
2016-12-17T05:52:51.232Z,51.91
2016-12-17T05:53:51.209Z,51.84
2016-12-17T05:54:50.883Z,51.62
2016-12-17T05:55:51.176Z,51.81
2016-12-17T05:56:51.161Z,51.91
2016-12-17T05:57:51.145Z,51.84
2016-12-17T05:58:51.133Z,51.91
2016-12-17T05:59:51.112Z,51.84
2016-12-17T06:00:51.094Z,51.91
2016-12-17T06:01:51.075Z,51.74
2016-12-17T06:02:50.742Z,52.03
2016-12-17T06:03:50.728Z,52.12
2016-12-17T06:04:51.026Z,52.12
2016-12-17T06:05:51.009Z,52.03
2016-12-17T06:06:50.991Z,52.03
2016-12-17T06:07:51.030Z,52.12
2016-12-17T06:08:50.958Z,51.84
2016-12-17T06:09:50.940Z,51.93
2016-12-17T06:10:50.920Z,51.84
2016-12-17T06:11:50.903Z,51.84
2016-12-17T06:12:50.894Z,51.93
2016-12-17T06:13:50.873Z,51.45
2016-12-17T06:14:50.854Z,51.45
2016-12-17T06:15:50.843Z,51.17
2016-12-17T06:16:50.821Z,51.26
2016-12-17T06:17:50.807Z,51.74
2016-12-17T06:18:50.791Z,51.07
2016-12-17T06:19:50.772Z,51.17
2016-12-17T06:20:50.754Z,51.07
2016-12-17T06:21:50.733Z,51.17
2016-12-17T06:22:50.725Z,51.17
2016-12-17T06:23:50.393Z,51.35
2016-12-17T06:24:50.368Z,51.45
2016-12-17T06:25:50.668Z,51.17
2016-12-17T06:26:50.341Z,50.97
2016-12-17T06:27:50.636Z,50.97
2016-12-17T06:28:50.619Z,51.07
2016-12-17T06:29:50.606Z,51.07
2016-12-17T06:30:50.270Z,51.07
2016-12-17T06:31:50.573Z,51.17
2016-12-17T06:32:50.557Z,51.35
2016-12-17T06:33:50.533Z,51.07
2016-12-17T06:34:50.518Z,50.97
2016-12-17T06:35:50.554Z,51.26
2016-12-17T06:36:50.176Z,51.07
2016-12-17T06:37:50.468Z,51.17
2016-12-17T06:38:50.485Z,51.17
2016-12-17T06:39:50.433Z,51.17
2016-12-17T06:40:50.102Z,51.07
2016-12-17T06:41:50.403Z,51.07
2016-12-17T06:42:50.387Z,51.07
2016-12-17T06:43:50.380Z,51.35
2016-12-17T06:44:50.353Z,50.97
2016-12-17T06:45:50.336Z,51.07
2016-12-17T06:46:50.313Z,51.45
2016-12-17T06:47:50.302Z,51.45
2016-12-17T06:48:50.285Z,51.26
2016-12-17T06:49:49.946Z,51.35
2016-12-17T06:50:50.252Z,51.35
2016-12-17T06:51:50.241Z,51.35
2016-12-17T06:52:50.216Z,50.4
2016-12-17T06:53:49.883Z,48.85
2016-12-17T06:54:50.181Z,48.47
2016-12-17T06:55:50.169Z,47.58
2016-12-17T06:56:50.150Z,47.2
2016-12-17T06:57:49.818Z,47.17
2016-12-17T06:58:50.117Z,47.15
2016-12-17T06:59:49.788Z,46.77
2016-12-17T07:00:50.092Z,46.19
2016-12-17T07:01:50.063Z,47.25
2016-12-17T07:02:50.050Z,47.27
2016-12-17T07:03:50.033Z,47.85
2016-12-17T07:04:50.015Z,48.45
2016-12-17T07:05:49.686Z,48.83
2016-12-17T07:06:49.981Z,48.74
2016-12-17T07:07:49.650Z,48.83
2016-12-17T07:08:49.945Z,48.57
2016-12-17T07:09:49.939Z,48.95
2016-12-17T07:10:49.918Z,48.76
2016-12-17T07:11:49.899Z,48.95
2016-12-17T07:12:49.888Z,48.85
2016-12-17T07:13:49.865Z,48.85
2016-12-17T07:14:49.852Z,48.85
2016-12-17T07:15:49.830Z,48.95
2016-12-17T07:16:49.817Z,49.24
2016-12-17T07:17:49.796Z,49.24
2016-12-17T07:18:49.463Z,48.95
2016-12-17T07:19:49.765Z,49.05
2016-12-17T07:20:49.437Z,49.24
2016-12-17T07:21:49.729Z,49.15
2016-12-17T07:22:49.714Z,48.95
2016-12-17T07:23:49.699Z,49.43
2016-12-17T07:24:49.679Z,49.24
2016-12-17T07:25:49.661Z,49.33
2016-12-17T07:26:49.647Z,49.53
2016-12-17T07:27:49.635Z,49.33
2016-12-17T07:28:49.610Z,49.33
2016-12-17T07:29:49.598Z,49.43
2016-12-17T07:30:49.580Z,49.33
2016-12-17T07:31:49.249Z,49.53
2016-12-17T07:32:49.548Z,49.24
2016-12-17T07:33:49.535Z,49.53
2016-12-17T07:34:49.522Z,49.63
2016-12-17T07:35:49.499Z,49.63
2016-12-17T07:36:49.477Z,49.72
2016-12-17T07:37:49.464Z,49.72
2016-12-17T07:38:49.445Z,49.53
2016-12-17T07:39:49.113Z,49.43
2016-12-17T07:40:49.414Z,49.72
2016-12-17T07:41:49.395Z,49.63
2016-12-17T07:42:49.382Z,49.43
2016-12-17T07:43:49.363Z,49.63
2016-12-17T07:44:49.034Z,49.82
2016-12-17T07:45:49.332Z,50.01
2016-12-17T07:46:49.315Z,49.72
2016-12-17T07:47:49.296Z,49.72
2016-12-17T07:48:49.282Z,49.72
2016-12-17T07:49:49.262Z,50.01
2016-12-17T07:50:49.244Z,49.82
2016-12-17T07:51:49.229Z,49.82
2016-12-17T07:52:48.900Z,49.82
2016-12-17T07:53:48.885Z,50.01
2016-12-17T07:54:49.182Z,50.1
2016-12-17T07:55:49.163Z,50.2
2016-12-17T07:56:49.145Z,50.4
2016-12-17T07:57:49.130Z,50.59
2016-12-17T07:58:49.116Z,50.3
2016-12-17T07:59:49.095Z,50.59
2016-12-17T08:00:49.083Z,50.4
2016-12-17T08:01:49.061Z,50.1
2016-12-17T08:02:49.047Z,49.91
2016-12-17T08:03:49.031Z,49.82
2016-12-17T08:04:49.018Z,50.1
2016-12-17T08:05:48.998Z,50.4
2016-12-17T08:06:48.981Z,50.4
2016-12-17T08:07:48.964Z,50.4
2016-12-17T08:08:48.630Z,50.59
2016-12-17T08:09:48.938Z,50.3
2016-12-17T08:10:48.916Z,50.01
2016-12-17T08:11:48.898Z,50.59
2016-12-17T08:12:48.880Z,50.78
2016-12-17T08:13:48.550Z,50.4
2016-12-17T08:14:48.845Z,50.4
2016-12-17T08:15:48.830Z,50.59
2016-12-17T08:16:48.496Z,50.2
2016-12-17T08:17:48.487Z,50.49
2016-12-17T08:18:48.464Z,50.49
2016-12-17T08:19:48.775Z,50.4
2016-12-17T08:20:48.758Z,50.4
2016-12-17T08:21:48.727Z,50.3
2016-12-17T08:22:48.400Z,50.49
2016-12-17T08:23:48.697Z,50.49
2016-12-17T08:24:48.679Z,50.4
2016-12-17T08:25:48.670Z,50.49
2016-12-17T08:26:48.668Z,50.3
2016-12-17T08:27:48.629Z,50.2
2016-12-17T08:28:48.614Z,50.68
2016-12-17T08:29:48.627Z,50.51
2016-12-17T08:30:48.266Z,50.4
2016-12-17T08:31:48.565Z,50.3
2016-12-17T08:32:48.550Z,50.32
2016-12-17T08:33:48.534Z,50.3
2016-12-17T08:34:48.527Z,50.49
2016-12-17T08:35:48.194Z,50.49
2016-12-17T08:36:48.482Z,50.71
2016-12-17T08:37:48.151Z,50.3
2016-12-17T08:38:48.130Z,50.32
2016-12-17T08:39:48.429Z,50.59
2016-12-17T08:40:48.416Z,50.61
2016-12-17T08:41:48.085Z,50.49
2016-12-17T08:42:48.385Z,50.59
2016-12-17T08:43:48.366Z,50.68
2016-12-17T08:44:48.351Z,50.59
2016-12-17T08:45:48.335Z,50.59
2016-12-17T08:46:48.316Z,50.4
2016-12-17T08:47:48.307Z,50.51
2016-12-17T08:48:48.282Z,50.3
2016-12-17T08:49:48.273Z,50.51
2016-12-17T08:50:47.936Z,50.42
2016-12-17T08:51:48.233Z,50.61
2016-12-17T08:52:47.901Z,50.42
2016-12-17T08:53:48.201Z,50.61
2016-12-17T08:54:48.184Z,50.61
2016-12-17T08:55:48.167Z,50.23
2016-12-17T08:56:47.836Z,50.9
2016-12-17T08:57:47.823Z,50.42
2016-12-17T08:58:48.118Z,50.2
2016-12-17T08:59:48.102Z,50.51
2016-12-17T09:00:47.772Z,50.42
2016-12-17T09:01:48.069Z,50.51
2016-12-17T09:02:48.056Z,50.51
2016-12-17T09:03:48.042Z,50.81
2016-12-17T09:04:47.710Z,50.61
2016-12-17T09:05:48.003Z,50.23
2016-12-17T09:06:47.984Z,50.49
2016-12-17T09:07:47.973Z,50.61
2016-12-17T09:08:47.949Z,50.32
2016-12-17T09:09:47.937Z,50.99
2016-12-17T09:10:47.921Z,50.61
2016-12-17T09:11:47.906Z,50.68
2016-12-17T09:12:47.886Z,50.78
2016-12-17T09:13:47.871Z,50.59
2016-12-17T09:14:47.534Z,50.42
2016-12-17T09:15:47.835Z,50.61
2016-12-17T09:16:47.823Z,50.32
2016-12-17T09:17:47.802Z,50.23
2016-12-17T09:18:47.787Z,50.1
2016-12-17T09:19:47.774Z,50.51
2016-12-17T09:20:47.757Z,50.61
2016-12-17T09:21:47.742Z,50.42
2016-12-17T09:22:47.722Z,50.32
2016-12-17T09:23:47.705Z,50.71
2016-12-17T09:24:47.372Z,50.32
2016-12-17T09:25:47.671Z,50.42
2016-12-17T09:26:47.655Z,50.61
2016-12-17T09:27:47.638Z,50.42
2016-12-17T09:28:47.621Z,50.59
2016-12-17T09:29:47.318Z,50.42
2016-12-17T09:30:47.591Z,50.61
2016-12-17T09:31:47.257Z,50.32
2016-12-17T09:32:47.580Z,50.71
2016-12-17T09:33:47.540Z,50.71
2016-12-17T09:34:47.527Z,50.71
2016-12-17T09:35:47.194Z,50.9
2016-12-17T09:36:47.495Z,50.59
2016-12-17T09:37:47.468Z,50.32
2016-12-17T09:38:47.457Z,50.42
2016-12-17T09:39:47.438Z,50.61
2016-12-17T09:40:47.421Z,50.71
2016-12-17T09:41:47.408Z,50.42
2016-12-17T09:42:47.390Z,50.71
2016-12-17T09:43:47.374Z,50.42
2016-12-17T09:44:47.358Z,50.42
2016-12-17T09:45:47.343Z,50.61
2016-12-17T09:46:47.324Z,50.59
2016-12-17T09:47:46.998Z,50.42
2016-12-17T09:48:47.289Z,51.09
2016-12-17T09:49:47.281Z,50.32
2016-12-17T09:50:47.258Z,50.23
2016-12-17T09:51:47.241Z,50.51
2016-12-17T09:52:46.912Z,50.32
2016-12-17T09:53:47.208Z,50.3
2016-12-17T09:54:47.195Z,50.3
2016-12-17T09:55:47.182Z,50.32
2016-12-17T09:56:47.165Z,50.23
2016-12-17T09:57:46.828Z,50.42
2016-12-17T09:58:46.815Z,50.51
2016-12-17T09:59:47.111Z,50.23
2016-12-17T10:00:47.093Z,50.49
2016-12-17T10:01:47.077Z,50.32
2016-12-17T10:02:46.741Z,50.23
2016-12-17T10:03:47.048Z,50.61
2016-12-17T10:04:47.035Z,50.81
2016-12-17T10:05:47.008Z,50.81
2016-12-17T10:06:46.992Z,50.51
2016-12-17T10:07:46.978Z,50.59
2016-12-17T10:08:46.958Z,50.4
2016-12-17T10:09:46.955Z,50.42
2016-12-17T10:10:46.928Z,50.42
2016-12-17T10:11:46.911Z,50.3
2016-12-17T10:12:46.896Z,50.81
2016-12-17T10:13:46.878Z,50.61
2016-12-17T10:14:46.863Z,50.61
2016-12-17T10:15:46.527Z,50.42
2016-12-17T10:16:46.833Z,50.81
2016-12-17T10:17:46.845Z,50.9
2016-12-17T10:18:46.798Z,50.23
2016-12-17T10:19:46.791Z,50.61
2016-12-17T10:20:46.765Z,50.51
2016-12-17T10:21:46.751Z,50.61
2016-12-17T10:22:46.731Z,50.32
2016-12-17T10:23:46.402Z,50.13
2016-12-17T10:24:46.705Z,49.84
2016-12-17T10:25:46.682Z,49.36
2016-12-17T10:26:46.348Z,49.07
2016-12-17T10:27:46.649Z,48.49
2016-12-17T10:28:46.632Z,48.3
2016-12-17T10:29:46.613Z,47.61
2016-12-17T10:30:46.284Z,48.38
2016-12-17T10:31:46.268Z,48.47
2016-12-17T10:32:46.565Z,48.28
2016-12-17T10:33:46.549Z,48.38
2016-12-17T10:34:46.538Z,48.57
2016-12-17T10:35:46.517Z,48.49
2016-12-17T10:36:46.498Z,48.47
2016-12-17T10:37:46.486Z,48.66
2016-12-17T10:38:46.470Z,48.88
2016-12-17T10:39:46.451Z,49.07
2016-12-17T10:40:46.435Z,48.79
2016-12-17T10:41:46.418Z,48.97
2016-12-17T10:42:46.399Z,49.07
2016-12-17T10:43:46.389Z,49.07
2016-12-17T10:44:46.362Z,49.07
2016-12-17T10:45:46.032Z,49.36
2016-12-17T10:46:46.339Z,49.17
2016-12-17T10:47:46.315Z,49.36
2016-12-17T10:48:46.302Z,49.55
2016-12-17T10:49:45.968Z,49.27
2016-12-17T10:50:46.269Z,49.27
2016-12-17T10:51:46.250Z,49.74
2016-12-17T10:52:46.248Z,49.74
2016-12-17T10:53:46.217Z,49.55
2016-12-17T10:54:46.203Z,50.13
2016-12-17T10:55:46.192Z,50.04
2016-12-17T10:56:45.856Z,49.84
2016-12-17T10:57:46.148Z,49.74
2016-12-17T10:58:46.134Z,50.04
2016-12-17T10:59:46.120Z,50.04
2016-12-17T11:00:46.109Z,49.94
2016-12-17T11:01:46.084Z,49.94
2016-12-17T11:02:46.067Z,49.84
2016-12-17T11:03:45.737Z,50.04
2016-12-17T11:04:46.034Z,49.94
2016-12-17T11:05:46.019Z,49.55
2016-12-17T11:06:46.035Z,49.65
2016-12-17T11:07:45.674Z,50.04
2016-12-17T11:08:45.971Z,50.13
2016-12-17T11:09:45.956Z,50.71
2016-12-17T11:10:45.955Z,50.9
2016-12-17T11:11:45.922Z,50.51
2016-12-17T11:12:45.907Z,50.42
2016-12-17T11:13:45.889Z,50.51
2016-12-17T11:14:45.878Z,50.81
2016-12-17T11:15:45.857Z,50.51
2016-12-17T11:16:45.521Z,50.71
2016-12-17T11:17:45.824Z,50.9
2016-12-17T11:18:45.807Z,51.19
2016-12-17T11:19:45.474Z,51.38
2016-12-17T11:20:45.774Z,51.09
2016-12-17T11:21:45.757Z,50.51
2016-12-17T11:22:45.742Z,50.51
2016-12-17T11:23:45.725Z,50.42
2016-12-17T11:24:45.704Z,50.71
2016-12-17T11:25:45.686Z,50.51
2016-12-17T11:26:45.362Z,50.32
2016-12-17T11:27:45.666Z,50.13
2016-12-17T11:28:45.643Z,50.32
2016-12-17T11:29:45.624Z,50.42
2016-12-17T11:30:45.618Z,50.51
2016-12-17T11:31:45.277Z,50.51
2016-12-17T11:32:45.576Z,50.51
2016-12-17T11:33:45.559Z,50.51
2016-12-17T11:34:45.546Z,50.81
2016-12-17T11:35:45.526Z,50.81
2016-12-17T11:36:45.501Z,50.61
2016-12-17T11:37:45.497Z,50.61
2016-12-17T11:38:45.165Z,50.42
2016-12-17T11:39:45.461Z,50.81
2016-12-17T11:40:45.446Z,50.81
2016-12-17T11:41:45.427Z,50.51
2016-12-17T11:42:45.415Z,50.51
2016-12-17T11:43:45.403Z,50.51
2016-12-17T11:44:45.382Z,50.32
2016-12-17T11:45:45.371Z,50.42
2016-12-17T11:46:45.345Z,50.51
2016-12-17T11:47:45.338Z,50.42
2016-12-17T11:48:45.314Z,50.42
2016-12-17T11:49:45.301Z,50.32
2016-12-17T11:50:45.286Z,50.32
2016-12-17T11:51:45.267Z,50.42
2016-12-17T11:52:45.249Z,50.42
2016-12-17T11:53:44.920Z,50.23
2016-12-17T11:54:45.217Z,50.42
2016-12-17T11:55:44.888Z,50.23
2016-12-17T11:56:45.193Z,50.32
2016-12-17T11:57:45.169Z,50.51
2016-12-17T11:58:45.154Z,50.23
2016-12-17T11:59:45.133Z,50.32
2016-12-17T12:00:45.122Z,50.42
2016-12-17T12:01:45.099Z,50.23
2016-12-17T12:02:45.089Z,50.71
2016-12-17T12:03:45.076Z,50.51
2016-12-17T12:04:44.743Z,50.42
2016-12-17T12:05:45.041Z,50.35
2016-12-17T12:06:45.024Z,50.42
2016-12-17T12:07:45.005Z,50.51
2016-12-17T12:08:44.672Z,50.23
2016-12-17T12:09:44.653Z,50.99
2016-12-17T12:10:44.956Z,50.73
2016-12-17T12:11:44.944Z,50.63
2016-12-17T12:12:44.923Z,50.25
2016-12-17T12:13:44.908Z,50.25
2016-12-17T12:14:44.579Z,50.35
2016-12-17T12:15:44.560Z,50.35
2016-12-17T12:16:44.540Z,50.25
2016-12-17T12:17:44.839Z,50.42
2016-12-17T12:18:44.824Z,50.25
2016-12-17T12:19:44.818Z,50.15
2016-12-17T12:20:44.793Z,50.32
2016-12-17T12:21:44.771Z,50.23
2016-12-17T12:22:44.765Z,50.32
2016-12-17T12:23:44.746Z,50.83
2016-12-17T12:24:44.727Z,50.73
2016-12-17T12:25:44.713Z,50.54
2016-12-17T12:26:44.694Z,50.54
2016-12-17T12:27:44.681Z,50.63
2016-12-17T12:28:44.660Z,50.54
2016-12-17T12:29:44.650Z,49.1
2016-12-17T12:30:44.631Z,47.27
2016-12-17T12:31:44.614Z,48.38
2016-12-17T12:32:44.596Z,49.91
2016-12-17T12:33:44.579Z,50.49
2016-12-17T12:34:44.562Z,49.72
2016-12-17T12:35:44.545Z,49.74
2016-12-17T12:36:44.535Z,49.46
2016-12-17T12:37:44.516Z,49.27
2016-12-17T12:38:44.495Z,49.48
2016-12-17T12:39:44.477Z,49.55
2016-12-17T12:40:44.464Z,49.77
2016-12-17T12:41:44.451Z,49.77
2016-12-17T12:42:44.430Z,49.29
2016-12-17T12:43:44.413Z,49.58
2016-12-17T12:44:44.399Z,49.77
2016-12-17T12:45:44.382Z,49.38
2016-12-17T12:46:44.368Z,49.58
2016-12-17T12:47:44.355Z,49.38
2016-12-17T12:48:44.340Z,49.48
2016-12-17T12:49:44.007Z,49.48
2016-12-17T12:50:44.295Z,49.58
2016-12-17T12:51:44.290Z,49.38
2016-12-17T12:52:44.277Z,49.58
2016-12-17T12:53:44.257Z,49.77
2016-12-17T12:54:44.237Z,49.48